createdAt,value
2023-03-31T00:02:15.602Z,2.60
2023-03-31T00:07:22.404Z,2.40
2023-03-31T00:12:25.178Z,2.40
2023-03-31T00:17:27.801Z,2.50
2023-03-31T00:22:30.222Z,1.90
2023-03-31T00:27:32.844Z,2.30
2023-03-31T00:32:35.371Z,3.63
2023-03-31T00:37:37.900Z,2.87
2023-03-31T00:42:42.254Z,2.37
2023-03-31T00:47:50.264Z,2.67
2023-03-31T00:52:58.316Z,2.07
2023-03-31T00:58:02.381Z,2.03
2023-03-31T01:03:07.995Z,1.80
2023-03-31T01:08:11.173Z,1.90
2023-03-31T01:13:15.283Z,2.20
2023-03-31T01:18:22.204Z,2.50
2023-03-31T01:24:03.641Z,1.77
2023-03-31T01:29:06.014Z,1.70
2023-03-31T01:34:45.259Z,2.20
2023-03-31T01:39:47.802Z,2.47
2023-03-31T01:45:20.625Z,2.03
2023-03-31T01:50:28.679Z,1.90
2023-03-31T01:55:37.691Z,1.70
2023-03-31T02:00:44.175Z,2.13
2023-03-31T02:05:58.563Z,2.47
2023-03-31T02:11:01.314Z,2.27
2023-03-31T02:16:08.371Z,2.30
2023-03-31T02:21:12.633Z,2.33
2023-03-31T02:26:18.227Z,2.33
2023-03-31T02:31:29.030Z,2.10
2023-03-31T02:36:34.296Z,1.43
2023-03-31T02:41:37.179Z,2.10
2023-03-31T02:46:40.380Z,2.40
2023-03-31T02:51:48.918Z,1.80
2023-03-31T02:57:06.681Z,2.50
2023-03-31T03:02:11.375Z,2.27
2023-03-31T03:07:32.156Z,1.70
2023-03-31T03:12:59.666Z,1.90
2023-03-31T03:18:02.779Z,2.20
2023-03-31T03:23:05.318Z,2.10
2023-03-31T03:28:08.181Z,1.60
2023-03-31T03:33:11.440Z,1.80
2023-03-31T03:38:14.024Z,2.53
2023-03-31T03:43:16.530Z,2.57
2023-03-31T03:48:19.757Z,1.90
2023-03-31T03:53:22.302Z,2.37
2023-03-31T03:58:24.911Z,2.23
2023-03-31T04:03:27.697Z,2.10
2023-03-31T04:08:30.594Z,1.97
2023-03-31T04:13:33.163Z,2.37
2023-03-31T04:18:37.633Z,1.90
2023-03-31T04:23:47.092Z,2.20
2023-03-31T04:34:02.890Z,1.90
2023-03-31T04:39:11.284Z,2.80
2023-03-31T04:44:14.061Z,2.03
2023-03-31T04:49:16.817Z,2.30
2023-03-31T04:54:19.642Z,2.10
2023-03-31T04:59:22.221Z,2.33
2023-03-31T05:04:24.925Z,2.47
2023-03-31T05:09:27.549Z,2.63
2023-03-31T05:14:30.091Z,2.90
2023-03-31T05:19:32.854Z,3.47
2023-03-31T05:24:35.483Z,3.17
2023-03-31T05:29:37.976Z,3.47
2023-03-31T05:34:40.689Z,3.63
2023-03-31T05:39:43.486Z,3.30
2023-03-31T05:44:46.192Z,2.83
2023-03-31T05:49:48.684Z,2.50
2023-03-31T05:54:51.399Z,2.73
2023-03-31T05:59:53.942Z,2.83
2023-03-31T06:04:56.434Z,2.47
2023-03-31T06:09:58.936Z,2.60
2023-03-31T06:15:01.428Z,2.40
2023-03-31T06:20:19.780Z,2.47
2023-03-31T06:25:34.501Z,2.40
2023-03-31T06:30:43.320Z,2.80
2023-03-31T06:35:46.379Z,2.53
2023-03-31T06:40:48.893Z,2.33
2023-03-31T06:45:53.991Z,3.07
2023-03-31T06:51:00.411Z,2.30
2023-03-31T06:56:03.178Z,2.50
2023-03-31T07:01:06.595Z,2.30
2023-03-31T07:06:09.335Z,2.20
2023-03-31T07:11:12.133Z,2.50
2023-03-31T07:16:14.845Z,2.40
2023-03-31T07:21:17.239Z,2.67
2023-03-31T07:26:19.713Z,2.30
2023-03-31T07:31:22.304Z,2.60
2023-03-31T07:36:24.808Z,2.83
2023-03-31T07:41:27.291Z,2.73
2023-03-31T07:46:29.856Z,2.43
2023-03-31T07:51:32.251Z,2.70
2023-03-31T07:56:34.673Z,2.47
2023-03-31T08:01:37.178Z,2.63
2023-03-31T08:06:39.994Z,3.07
2023-03-31T08:11:46.016Z,2.40
2023-03-31T08:16:49.314Z,2.27
2023-03-31T08:21:52.707Z,2.83
2023-03-31T08:26:55.337Z,2.80
2023-03-31T08:31:57.934Z,3.00
2023-03-31T08:37:00.457Z,3.33
2023-03-31T08:42:13.945Z,3.03
2023-03-31T08:47:21.232Z,3.07
2023-03-31T08:52:32.396Z,2.70
2023-03-31T08:57:47.730Z,2.80
2023-03-31T09:03:00.996Z,2.40
2023-03-31T09:08:22.886Z,2.57
2023-03-31T09:14:02.676Z,2.63
2023-03-31T09:19:31.011Z,3.50
2023-03-31T09:24:37.525Z,2.77
2023-03-31T09:29:42.811Z,2.60
2023-03-31T09:34:46.846Z,2.50
2023-03-31T09:39:49.634Z,2.53
2023-03-31T09:44:52.135Z,2.77
2023-03-31T09:49:54.628Z,2.63
2023-03-31T09:55:01.563Z,2.23
2023-03-31T10:00:21.783Z,2.33
2023-03-31T10:05:36.888Z,2.33
2023-03-31T10:10:39.568Z,2.30
2023-03-31T10:15:42.512Z,2.50
2023-03-31T10:20:52.437Z,2.60
2023-03-31T10:25:55.238Z,2.10
2023-03-31T10:31:01.944Z,2.30
2023-03-31T10:36:27.106Z,3.57
2023-03-31T10:41:30.823Z,1.90
2023-03-31T10:47:15.688Z,2.70
2023-03-31T10:52:29.054Z,2.30
2023-03-31T10:57:56.962Z,3.10
2023-03-31T11:02:59.580Z,2.70
2023-03-31T11:08:28.456Z,2.60
2023-03-31T11:13:38.686Z,3.93
2023-03-31T11:18:59.897Z,3.60
2023-03-31T11:24:32.194Z,3.93
2023-03-31T11:29:50.062Z,2.40
2023-03-31T11:35:19.724Z,2.70
2023-03-31T11:40:52.576Z,3.90
2023-03-31T11:46:01.512Z,3.10
2023-03-31T11:51:07.177Z,3.97
2023-03-31T11:56:12.220Z,3.53
2023-03-31T12:01:36.341Z,2.90
2023-03-31T12:06:42.938Z,3.50
2023-03-31T12:12:03.439Z,3.07
2023-03-31T12:17:15.151Z,2.80
2023-03-31T12:22:34.858Z,4.03
2023-03-31T12:27:42.074Z,3.92
2023-03-31T12:32:47.774Z,2.57
2023-03-31T12:38:03.280Z,3.07
2023-03-31T12:43:16.751Z,2.87
2023-03-31T12:48:43.751Z,2.93
2023-03-31T12:54:04.495Z,3.10
2023-03-31T12:59:19.655Z,2.97
2023-03-31T13:04:22.767Z,2.90
2023-03-31T13:09:43.228Z,3.80
2023-03-31T13:14:48.627Z,2.93
2023-03-31T13:19:51.939Z,2.73
2023-03-31T13:24:54.666Z,2.47
2023-03-31T13:29:57.395Z,3.43
2023-03-31T13:35:08.065Z,3.30
2023-03-31T13:40:28.712Z,4.47
2023-03-31T13:45:51.103Z,5.00
2023-03-31T13:51:11.949Z,3.70
2023-03-31T13:56:27.348Z,2.90
2023-03-31T14:01:51.364Z,2.37
2023-03-31T14:07:03.027Z,3.23
2023-03-31T14:12:32.503Z,2.73
2023-03-31T14:17:38.293Z,3.50
2023-03-31T14:22:58.786Z,3.70
2023-03-31T14:28:23.947Z,2.90
2023-03-31T14:33:32.593Z,2.80
2023-03-31T14:38:35.274Z,3.10
2023-03-31T14:43:41.390Z,3.00
2023-03-31T14:48:48.127Z,2.83
2023-03-31T14:53:59.582Z,2.80
2023-03-31T14:59:02.310Z,4.23
2023-03-31T15:04:11.696Z,2.50
2023-03-31T15:09:34.808Z,3.33
2023-03-31T15:14:41.381Z,3.60
2023-03-31T15:19:43.792Z,4.73
2023-03-31T15:24:47.479Z,6.87
2023-03-31T15:29:57.771Z,5.03
2023-03-31T15:35:11.048Z,4.67
2023-03-31T15:40:44.395Z,4.10
2023-03-31T15:45:52.381Z,4.70
2023-03-31T15:51:06.294Z,5.13
2023-03-31T15:56:08.860Z,4.13
2023-03-31T16:01:16.015Z,4.07
2023-03-31T16:06:40.264Z,3.90
2023-03-31T16:11:50.459Z,5.33
2023-03-31T16:16:57.497Z,4.27
2023-03-31T16:22:02.437Z,4.27
2023-03-31T16:27:09.828Z,3.97
2023-03-31T16:32:21.320Z,3.93
2023-03-31T16:37:24.640Z,3.40
2023-03-31T16:42:32.187Z,3.53
2023-03-31T16:47:37.567Z,4.03
2023-03-31T16:52:41.486Z,3.50
2023-03-31T16:57:47.028Z,3.70
2023-03-31T17:02:51.466Z,3.33
2023-03-31T17:07:54.632Z,3.17
2023-03-31T17:12:57.368Z,3.57
2023-03-31T17:18:09.166Z,4.03
2023-03-31T17:23:12.316Z,5.50
2023-03-31T17:28:14.796Z,5.90
2023-03-31T17:33:17.702Z,6.87
2023-03-31T17:38:22.912Z,7.17
2023-03-31T17:43:25.498Z,7.60
2023-03-31T17:48:28.304Z,6.80
2023-03-31T17:53:34.496Z,6.23
2023-03-31T17:58:38.327Z,6.67
2023-03-31T18:03:45.323Z,6.57
2023-03-31T18:08:48.269Z,8.13
2023-03-31T18:13:51.490Z,8.73
2023-03-31T18:18:54.166Z,7.33
2023-03-31T18:23:56.696Z,8.63
2023-03-31T18:29:00.346Z,8.00
2023-03-31T18:34:02.976Z,7.87
2023-03-31T18:39:05.571Z,8.30
2023-03-31T18:44:08.805Z,6.83
2023-03-31T18:49:12.328Z,8.43
2023-03-31T18:54:14.964Z,8.87
2023-03-31T18:59:18.071Z,9.20
2023-03-31T19:04:20.896Z,7.67
2023-03-31T19:09:26.386Z,7.57
2023-03-31T19:14:29.122Z,8.07
2023-03-31T19:19:31.671Z,8.10
2023-03-31T19:24:34.134Z,8.40
2023-03-31T19:29:36.738Z,8.67
2023-03-31T19:34:39.216Z,9.00
2023-03-31T19:39:41.782Z,7.87
2023-03-31T19:44:45.403Z,9.60
2023-03-31T19:49:47.991Z,7.20
2023-03-31T19:54:50.731Z,7.87
2023-03-31T19:59:53.216Z,6.40
2023-03-31T20:04:56.170Z,6.37
2023-03-31T20:09:58.609Z,6.77
2023-03-31T20:15:01.124Z,6.37
2023-03-31T20:20:03.780Z,7.50
2023-03-31T20:25:06.916Z,6.90
2023-03-31T20:30:09.963Z,6.13
2023-03-31T20:35:12.997Z,7.47
2023-03-31T20:40:16.305Z,7.17
2023-03-31T20:45:18.793Z,6.13
2023-03-31T20:50:23.255Z,6.97
2023-03-31T20:55:25.794Z,6.50
2023-03-31T21:00:31.026Z,6.53
2023-03-31T21:05:33.782Z,7.97
2023-03-31T21:10:41.765Z,6.93
2023-03-31T21:15:49.139Z,6.53
2023-03-31T21:20:59.637Z,5.90
2023-03-31T21:26:03.776Z,6.23
2023-03-31T21:31:12.133Z,6.03
2023-03-31T21:36:17.008Z,6.07
2023-03-31T21:41:26.299Z,5.57
2023-03-31T21:46:30.715Z,6.40
2023-03-31T21:51:33.131Z,6.03
2023-03-31T21:56:35.626Z,6.10
2023-03-31T22:01:38.080Z,6.00
2023-03-31T22:06:40.657Z,6.73
2023-03-31T22:11:43.154Z,6.10
2023-03-31T22:16:45.510Z,6.10
2023-03-31T22:21:50.291Z,6.80
2023-03-31T22:26:52.701Z,5.47
2023-03-31T22:31:55.090Z,6.10
2023-03-31T22:36:57.812Z,6.63
2023-03-31T22:42:00.125Z,5.97
2023-03-31T22:47:03.550Z,5.50
2023-03-31T22:52:06.267Z,7.23
2023-03-31T22:57:08.901Z,6.40
2023-03-31T23:02:11.706Z,6.13
2023-03-31T23:07:15.978Z,7.40
2023-03-31T23:12:18.302Z,6.33
2023-03-31T23:17:21.069Z,7.87
2023-03-31T23:22:25.714Z,7.90
2023-03-31T23:27:28.037Z,7.03
2023-03-31T23:32:30.821Z,6.77
2023-03-31T23:37:33.145Z,7.67
2023-03-31T23:42:35.827Z,7.53
2023-03-31T23:47:41.037Z,6.93
2023-03-31T23:52:43.489Z,7.17
2023-03-31T23:57:46.039Z,6.80
